Terminal Aerodrome Forecast
Issued by NWS

Home | Current Version | Previous Version | Text Only | Print | Product List | Glossary On
Versions: 1 2 3 4 5 6 7 8 9 10 11 12
000
FTUS42 KTAE 291737
TAFABY
TAF
KABY 291737Z 2918/3018 33007KT P6SM SCT060
     FM300100 00000KT P6SM SCT250
     FM301400 25005KT P6SM FEW040=

USA.gov is the U.S. government's official web portal to all federal, state and local government web resources and services.